CheckWX is a tool to help pilots better visualize weather data.  It is not intended as a substitute for an official pre-flight weather briefing.

14:52:17 UTC

KBCB TAF
Virginia Tech / Montgomery Executive Airport
Blacksburg, Virginia, USA
KBCB 231120Z 2312/2412 29009G18KT P6SM SKC FM232300 30007KT P6SM SKC

Mar-23@
12:00 UTC

Mar-23 @ 12:00 UTC

Mar-23@
23:00 UTC

Mar-23 @ 23:00 UTC

KBCB 231120Z 2312/2412 29009G18KT P6SM SKC
Wind
  • 290° at 9 KTS
  • {Gusting to 18 KTS
Cloud Levels
  • Clear skies

Mar-23@
23:00 UTC

Mar-23 @ 23:00 UTC

Mar-24@
12:00 UTC

Mar-24 @ 12:00 UTC

FM232300 30007KT P6SM SKC

From

From Standard forecast or significant change

Wind
  • 300° at 7 KTS
Cloud Levels
  • Clear skies